createdAt,value
2019-04-26T00:01:25.230Z,23.32
2019-04-26T00:03:53.104Z,23.29
2019-04-26T00:06:21.129Z,23.40
2019-04-26T00:08:53.532Z,23.35
2019-04-26T00:11:39.032Z,23.44
2019-04-26T00:14:34.958Z,23.31
2019-04-26T00:17:10.152Z,23.31
2019-04-26T00:19:39.088Z,23.27
2019-04-26T00:22:07.132Z,23.20
2019-04-26T00:24:35.222Z,23.34
2019-04-26T00:27:03.101Z,23.21
2019-04-26T00:29:30.870Z,23.20
2019-04-26T00:31:58.623Z,23.30
2019-04-26T00:34:26.505Z,23.43
2019-04-26T00:36:54.402Z,23.38
2019-04-26T00:39:23.219Z,23.21
2019-04-26T00:41:51.688Z,23.38
2019-04-26T00:44:19.455Z,23.18
2019-04-26T00:46:47.240Z,23.35
2019-04-26T00:49:15.340Z,23.21
2019-04-26T00:51:43.125Z,23.36
2019-04-26T00:54:10.889Z,23.31
2019-04-26T00:56:38.654Z,23.29
2019-04-26T00:59:06.440Z,23.19
2019-04-26T01:01:37.492Z,23.36
2019-04-26T01:04:05.319Z,23.59
2019-04-26T01:06:34.811Z,23.66
2019-04-26T01:09:02.652Z,23.65
2019-04-26T01:11:30.496Z,23.70
2019-04-26T01:13:58.255Z,23.30
2019-04-26T01:16:26.417Z,23.10
2019-04-26T01:18:54.253Z,23.42
2019-04-26T01:21:22.683Z,23.66
2019-04-26T01:23:51.284Z,23.69
2019-04-26T01:26:23.194Z,23.50
2019-04-26T01:28:55.946Z,22.89
2019-04-26T01:31:23.906Z,22.93
2019-04-26T01:33:51.860Z,23.06
2019-04-26T01:36:20.526Z,23.39
2019-04-26T01:38:48.640Z,22.84
2019-04-26T01:41:21.393Z,23.01
2019-04-26T01:43:58.312Z,23.33
2019-04-26T01:46:31.034Z,23.15
2019-04-26T01:48:58.944Z,23.42
2019-04-26T01:51:28.728Z,23.14
2019-04-26T01:53:56.634Z,23.22
2019-04-26T01:56:27.102Z,22.58
2019-04-26T01:58:55.002Z,22.42
2019-04-26T02:01:30.361Z,22.30
2019-04-26T02:03:58.251Z,23.07
2019-04-26T02:06:31.256Z,23.26
2019-04-26T02:08:55.536Z,23.39
2019-04-26T02:11:24.097Z,23.27
2019-04-26T02:13:52.785Z,22.42
2019-04-26T02:16:20.573Z,21.98
2019-04-26T02:18:48.353Z,22.09
2019-04-26T02:21:41.212Z,22.85
2019-04-26T02:24:16.842Z,22.96
2019-04-26T02:26:45.635Z,23.16
2019-04-26T02:29:14.352Z,22.93
2019-04-26T02:31:42.271Z,22.46
2019-04-26T02:34:10.077Z,22.32
2019-04-26T02:36:56.272Z,22.47
2019-04-26T02:39:17.533Z,22.88
2019-04-26T02:41:45.535Z,23.14
2019-04-26T02:44:13.363Z,23.06
2019-04-26T02:46:48.317Z,22.14
2019-04-26T02:49:41.212Z,22.13
2019-04-26T02:52:22.840Z,22.42
2019-04-26T02:54:53.072Z,22.96
2019-04-26T02:57:22.938Z,22.42
2019-04-26T02:59:50.718Z,21.51
2019-04-26T03:02:20.449Z,21.68
2019-04-26T03:04:48.298Z,22.57
2019-04-26T03:07:19.863Z,22.89
2019-04-26T03:09:47.657Z,21.94
2019-04-26T03:12:15.559Z,21.41
2019-04-26T03:14:52.811Z,22.15
2019-04-26T03:17:35.589Z,22.36
2019-04-26T03:20:03.977Z,21.96
2019-04-26T03:22:50.838Z,22.20
2019-04-26T03:25:22.111Z,21.90
2019-04-26T03:27:54.401Z,21.55
2019-04-26T03:30:25.131Z,22.22
2019-04-26T03:33:10.975Z,22.63
2019-04-26T03:36:04.083Z,22.49
2019-04-26T03:38:38.254Z,22.46
2019-04-26T03:41:17.057Z,22.41
2019-04-26T03:44:07.041Z,21.54
2019-04-26T03:46:43.842Z,21.19
2019-04-26T03:49:24.022Z,21.36
2019-04-26T03:52:07.852Z,21.10
2019-04-26T03:54:37.251Z,21.12
2019-04-26T03:57:18.106Z,21.46
2019-04-26T04:00:14.569Z,21.47
2019-04-26T04:02:59.533Z,21.31
2019-04-26T04:05:36.016Z,20.86
2019-04-26T04:08:04.607Z,20.65
2019-04-26T04:10:41.969Z,20.09
2019-04-26T04:13:45.667Z,21.26
2019-04-26T04:16:14.586Z,21.78
2019-04-26T04:18:45.364Z,21.33
2019-04-26T04:21:31.972Z,20.82
2019-04-26T04:24:03.471Z,21.11
2019-04-26T04:26:49.173Z,21.31
2019-04-26T04:29:42.789Z,21.08
2019-04-26T04:32:13.177Z,21.29
2019-04-26T04:34:42.106Z,21.31
2019-04-26T04:37:11.478Z,21.01
2019-04-26T04:39:53.479Z,21.61
2019-04-26T04:42:30.023Z,21.96
2019-04-26T04:45:21.094Z,21.86
2019-04-26T04:48:15.622Z,22.01
2019-04-26T04:50:49.254Z,22.06
2019-04-26T04:53:41.208Z,21.49
2019-04-26T04:56:17.121Z,21.62
2019-04-26T04:58:48.135Z,21.61
2019-04-26T05:01:34.752Z,21.65
2019-04-26T05:04:07.257Z,21.22
2019-04-26T05:06:54.777Z,20.93
2019-04-26T05:09:26.869Z,21.24
2019-04-26T05:12:06.564Z,22.00
2019-04-26T05:14:52.336Z,22.12
2019-04-26T05:17:32.277Z,21.81
2019-04-26T05:20:07.895Z,20.99
2019-04-26T05:22:49.019Z,20.73
2019-04-26T05:25:45.197Z,21.19
2019-04-26T05:28:25.336Z,20.67
2019-04-26T05:31:17.548Z,20.41
2019-04-26T05:33:55.144Z,21.32
2019-04-26T05:36:29.349Z,21.47
2019-04-26T05:39:00.965Z,21.49
2019-04-26T05:41:59.046Z,21.80
2019-04-26T05:44:32.580Z,22.07
2019-04-26T05:47:14.673Z,21.01
2019-04-26T05:50:34.944Z,21.86
2019-04-26T05:53:33.944Z,21.27
2019-04-26T05:56:25.279Z,20.94
2019-04-26T05:59:03.137Z,20.94
2019-04-26T06:01:59.049Z,21.29
2019-04-26T06:04:47.392Z,21.44
2019-04-26T06:07:39.610Z,21.15
2019-04-26T06:10:27.818Z,20.77
2019-04-26T06:13:03.543Z,21.55
2019-04-26T06:16:07.018Z,21.86
2019-04-26T06:18:48.843Z,21.80
2019-04-26T06:21:42.228Z,21.43
2019-04-26T06:24:20.761Z,21.24
2019-04-26T06:27:19.972Z,21.57
2019-04-26T06:29:52.603Z,21.11
2019-04-26T06:32:34.411Z,21.28
2019-04-26T06:35:06.748Z,21.38
2019-04-26T06:37:48.718Z,21.47
2019-04-26T06:40:19.422Z,21.57
2019-04-26T06:43:02.882Z,21.81
2019-04-26T06:46:07.593Z,21.68
2019-04-26T06:48:50.418Z,21.57
2019-04-26T06:51:24.743Z,21.67
2019-04-26T06:54:03.514Z,21.59
2019-04-26T06:56:36.768Z,21.71
2019-04-26T06:59:07.234Z,21.78
2019-04-26T07:01:35.995Z,21.85
2019-04-26T07:04:21.545Z,22.00
2019-04-26T07:07:11.601Z,22.06
2019-04-26T07:09:49.362Z,22.22
2019-04-26T07:12:29.556Z,22.27
2019-04-26T07:15:02.279Z,22.34
2019-04-26T07:17:38.003Z,22.33
2019-04-26T07:20:24.821Z,22.25
2019-04-26T07:23:12.593Z,21.88
2019-04-26T07:25:52.205Z,22.10
2019-04-26T07:28:45.690Z,22.27
2019-04-26T07:31:16.838Z,22.33
2019-04-26T07:33:55.984Z,22.52
2019-04-26T07:36:52.299Z,22.37
2019-04-26T07:39:42.325Z,22.47
2019-04-26T07:42:24.967Z,22.48
2019-04-26T07:45:18.394Z,22.53
2019-04-26T07:48:14.662Z,22.48
2019-04-26T07:51:00.776Z,22.45
2019-04-26T07:53:32.101Z,22.51
2019-04-26T07:56:05.000Z,22.51
2019-04-26T07:58:50.993Z,22.59
2019-04-26T08:01:44.732Z,22.53
2019-04-26T08:04:16.311Z,22.61
2019-04-26T08:06:51.991Z,22.68
2019-04-26T08:09:27.034Z,22.74
2019-04-26T08:11:50.645Z,22.75
2019-04-26T08:14:21.892Z,22.72
2019-04-26T08:17:15.873Z,22.62
2019-04-26T08:19:47.140Z,22.79
2019-04-26T08:22:21.811Z,22.82
2019-04-26T08:24:44.480Z,22.74
2019-04-26T08:27:22.787Z,22.71
2019-04-26T08:29:44.565Z,22.80
2019-04-26T08:32:18.765Z,22.73
2019-04-26T08:34:48.668Z,22.66
2019-04-26T08:37:23.500Z,22.72
2019-04-26T08:39:52.022Z,22.62
2019-04-26T08:42:23.835Z,22.62
2019-04-26T08:44:56.944Z,22.65
2019-04-26T08:47:42.293Z,22.76
2019-04-26T08:50:24.171Z,22.66
2019-04-26T08:52:51.913Z,22.55
2019-04-26T08:55:22.110Z,22.68
2019-04-26T08:57:49.892Z,22.75
2019-04-26T09:00:39.957Z,22.80
2019-04-26T09:03:14.133Z,22.67
2019-04-26T09:06:16.137Z,22.64
2019-04-26T09:08:45.094Z,22.56
2019-04-26T09:11:25.590Z,22.47
2019-04-26T09:13:43.002Z,22.58
2019-04-26T09:16:15.085Z,22.74
2019-04-26T09:18:47.952Z,22.76
2019-04-26T09:21:13.233Z,22.87
2019-04-26T09:24:20.991Z,22.84
2019-04-26T09:26:55.945Z,22.89
2019-04-26T09:29:30.578Z,22.85
2019-04-26T09:32:06.280Z,22.81
2019-04-26T09:34:34.155Z,22.92
2019-04-26T09:37:01.989Z,23.01
2019-04-26T09:39:30.237Z,23.03
2019-04-26T09:42:04.768Z,22.92
2019-04-26T09:44:41.387Z,22.99
2019-04-26T09:47:19.941Z,23.00
2019-04-26T09:50:05.812Z,22.79
2019-04-26T09:52:40.423Z,22.82
2019-04-26T09:55:08.259Z,22.84
2019-04-26T09:57:36.076Z,23.02
2019-04-26T10:00:04.371Z,23.09
2019-04-26T10:02:33.971Z,23.13
2019-04-26T10:05:01.702Z,23.13
2019-04-26T10:07:29.495Z,23.14
2019-04-26T10:10:00.788Z,23.20
2019-04-26T10:12:35.519Z,23.28
2019-04-26T10:15:22.375Z,23.33
2019-04-26T10:17:51.163Z,23.20
2019-04-26T10:20:19.022Z,23.23
2019-04-26T10:22:46.814Z,23.32
2019-04-26T10:25:16.887Z,23.37
2019-04-26T10:27:44.347Z,23.47
2019-04-26T10:30:14.293Z,23.47
2019-04-26T10:32:51.011Z,23.46
2019-04-26T10:35:21.804Z,23.51
2019-04-26T10:37:49.290Z,23.55
2019-04-26T10:40:17.443Z,23.54
2019-04-26T10:42:45.196Z,23.51
2019-04-26T10:45:14.527Z,23.46
2019-04-26T10:47:42.596Z,23.41
2019-04-26T10:50:10.512Z,23.51
2019-04-26T10:52:53.160Z,23.62
2019-04-26T10:55:33.250Z,23.64
2019-04-26T10:58:14.172Z,23.59
2019-04-26T11:00:42.579Z,23.59
2019-04-26T11:03:10.344Z,23.60
2019-04-26T11:05:38.109Z,23.44
2019-04-26T11:08:05.910Z,23.32
2019-04-26T11:11:31.100Z,23.31
2019-04-26T11:13:20.702Z,23.43
2019-04-26T11:15:47.358Z,23.52
2019-04-26T11:18:15.422Z,23.52
2019-04-26T11:20:45.689Z,23.62
2019-04-26T11:23:13.594Z,23.73
2019-04-26T11:25:41.431Z,23.86
2019-04-26T11:28:09.249Z,23.88
2019-04-26T11:30:37.006Z,23.78
2019-04-26T11:33:07.239Z,23.81
2019-04-26T11:35:34.837Z,23.83
2019-04-26T11:38:02.778Z,23.83
2019-04-26T11:40:30.731Z,23.88
2019-04-26T11:42:58.493Z,23.74
2019-04-26T11:45:26.293Z,23.73
2019-04-26T11:47:56.288Z,23.65
2019-04-26T11:50:23.630Z,23.58
2019-04-26T11:52:51.505Z,23.51
2019-04-26T11:55:19.551Z,23.41
2019-04-26T11:57:50.180Z,23.37
2019-04-26T12:00:28.593Z,23.21
2019-04-26T12:02:56.661Z,23.22
2019-04-26T12:05:31.966Z,23.41
2019-04-26T12:08:03.637Z,23.76
2019-04-26T12:10:31.396Z,23.74
2019-04-26T12:13:05.533Z,23.87
2019-04-26T12:15:30.287Z,23.91
2019-04-26T12:17:59.097Z,23.78
2019-04-26T12:20:28.441Z,23.92
2019-04-26T12:23:20.522Z,23.84
2019-04-26T12:25:48.245Z,23.85
2019-04-26T12:28:15.868Z,23.82
2019-04-26T12:30:43.773Z,23.61
2019-04-26T12:33:11.562Z,23.60
2019-04-26T12:35:39.440Z,23.64
2019-04-26T12:38:07.252Z,23.27
2019-04-26T12:40:35.145Z,23.70
2019-04-26T12:43:02.946Z,23.71
2019-04-26T12:45:53.420Z,23.46
2019-04-26T12:48:22.288Z,23.37
2019-04-26T12:50:50.317Z,23.70
2019-04-26T12:53:18.269Z,23.61
2019-04-26T12:55:49.110Z,23.42
2019-04-26T12:58:16.650Z,23.37
2019-04-26T13:00:53.952Z,23.58
2019-04-26T13:03:20.516Z,23.71
2019-04-26T13:05:49.803Z,23.27
2019-04-26T13:08:17.095Z,23.22
2019-04-26T13:11:15.097Z,23.22
2019-04-26T13:13:45.636Z,23.03
2019-04-26T13:16:26.093Z,23.14
2019-04-26T13:18:51.280Z,23.50
2019-04-26T13:21:19.151Z,23.63
2019-04-26T13:23:48.309Z,23.77
2019-04-26T13:26:43.639Z,23.50
2019-04-26T13:29:11.434Z,23.81
2019-04-26T13:31:39.290Z,23.61
2019-04-26T13:34:08.826Z,23.66
2019-04-26T13:36:36.581Z,23.59
2019-04-26T13:39:08.945Z,23.75
2019-04-26T13:41:38.767Z,23.66
2019-04-26T13:44:06.442Z,23.66
2019-04-26T13:47:11.687Z,23.62
2019-04-26T13:49:53.848Z,23.63
2019-04-26T13:52:21.613Z,23.55
2019-04-26T13:54:51.190Z,23.47
2019-04-26T13:57:18.864Z,23.51
2019-04-26T13:59:46.692Z,23.45
2019-04-26T14:02:14.506Z,23.33
2019-04-26T14:04:42.633Z,23.22
2019-04-26T14:07:10.589Z,23.70
2019-04-26T14:09:38.340Z,23.67
2019-04-26T14:12:17.892Z,23.84
2019-04-26T14:14:35.908Z,23.71
2019-04-26T14:17:03.745Z,23.79
2019-04-26T14:19:31.495Z,23.77
2019-04-26T14:21:59.262Z,23.69
2019-04-26T14:24:44.208Z,23.50
2019-04-26T14:27:17.469Z,23.47
2019-04-26T14:29:45.218Z,23.55
2019-04-26T14:32:12.992Z,23.54
2019-04-26T14:34:42.010Z,23.40
2019-04-26T14:37:11.099Z,23.34
2019-04-26T14:39:50.035Z,23.12
2019-04-26T14:42:09.092Z,23.42
2019-04-26T14:44:48.950Z,23.64
2019-04-26T14:47:13.897Z,23.52
2019-04-26T14:49:39.232Z,23.57
2019-04-26T14:52:05.357Z,23.72
2019-04-26T14:54:33.200Z,23.60
2019-04-26T14:57:07.338Z,23.55
2019-04-26T15:00:02.028Z,23.64
2019-04-26T15:03:00.871Z,23.65
2019-04-26T15:05:47.947Z,23.76
2019-04-26T15:08:15.768Z,23.79
2019-04-26T15:10:48.633Z,23.32
2019-04-26T15:13:19.960Z,23.76
2019-04-26T15:15:45.861Z,23.74
2019-04-26T15:18:12.302Z,23.70
2019-04-26T15:20:40.144Z,23.79
2019-04-26T15:23:07.918Z,23.65
2019-04-26T15:25:36.876Z,23.72
2019-04-26T15:28:12.013Z,23.37
2019-04-26T15:30:43.420Z,23.35
2019-04-26T15:33:08.932Z,23.52
2019-04-26T15:35:36.044Z,23.52
2019-04-26T15:38:03.805Z,23.39
2019-04-26T15:40:53.523Z,23.47
2019-04-26T15:43:25.618Z,23.17
2019-04-26T15:45:59.361Z,23.59
2019-04-26T15:48:45.785Z,23.22
2019-04-26T15:51:14.817Z,23.13
2019-04-26T15:53:49.777Z,23.19
2019-04-26T15:56:18.256Z,23.72
2019-04-26T15:59:25.343Z,23.54
2019-04-26T16:01:56.152Z,23.46
2019-04-26T16:04:23.896Z,23.61
2019-04-26T16:06:59.592Z,23.71
2019-04-26T16:09:33.062Z,23.73
2019-04-26T16:12:08.686Z,23.83
2019-04-26T16:14:37.375Z,23.68
2019-04-26T16:17:06.730Z,23.47
2019-04-26T16:19:35.249Z,23.34
2019-04-26T16:22:34.417Z,23.66
2019-04-26T16:25:08.701Z,23.62
2019-04-26T16:27:52.266Z,23.22
2019-04-26T16:30:53.127Z,23.23
2019-04-26T16:33:23.323Z,23.23
2019-04-26T16:35:53.048Z,23.21
2019-04-26T16:38:37.456Z,23.35
2019-04-26T16:41:05.689Z,23.37
2019-04-26T16:43:40.025Z,23.39
2019-04-26T16:46:05.325Z,23.25
2019-04-26T16:48:35.763Z,23.10
2019-04-26T16:51:08.368Z,23.20
2019-04-26T16:53:53.093Z,23.18
2019-04-26T16:56:11.441Z,23.29
2019-04-26T16:58:44.990Z,23.42
2019-04-26T17:01:15.133Z,23.53
2019-04-26T17:03:45.156Z,23.62
2019-04-26T17:06:14.395Z,23.46
2019-04-26T17:08:49.180Z,23.30
2019-04-26T17:11:14.082Z,23.31
2019-04-26T17:13:50.458Z,23.51
2019-04-26T17:16:12.867Z,23.14
2019-04-26T17:18:42.643Z,23.25
2019-04-26T17:21:12.577Z,23.11
2019-04-26T17:23:49.242Z,23.28
2019-04-26T17:26:42.780Z,23.16
2019-04-26T17:29:10.875Z,22.90
2019-04-26T17:31:38.858Z,22.89
2019-04-26T17:34:06.687Z,22.76
2019-04-26T17:36:34.825Z,22.97
2019-04-26T17:39:03.233Z,22.76
2019-04-26T17:41:33.043Z,22.61
2019-04-26T17:44:08.011Z,22.66
2019-04-26T17:46:32.438Z,22.72
2019-04-26T17:49:00.515Z,22.58
2019-04-26T17:51:28.813Z,22.67
2019-04-26T17:54:20.413Z,22.70
2019-04-26T17:56:30.734Z,22.52
2019-04-26T17:58:55.860Z,22.49
2019-04-26T18:01:42.174Z,22.54
2019-04-26T18:03:55.712Z,22.56
2019-04-26T18:06:29.432Z,22.38
2019-04-26T18:08:54.965Z,22.11
2019-04-26T18:11:24.973Z,22.53
2019-04-26T18:13:53.964Z,22.29
2019-04-26T18:16:42.769Z,21.89
2019-04-26T18:19:30.532Z,22.20
2019-04-26T18:22:24.118Z,22.28
2019-04-26T18:24:52.224Z,22.19
2019-04-26T18:27:20.154Z,22.22
2019-04-26T18:29:48.004Z,22.17
2019-04-26T18:32:16.086Z,22.17
2019-04-26T18:34:43.909Z,22.32
2019-04-26T18:37:13.344Z,22.45
2019-04-26T18:39:42.988Z,22.25
2019-04-26T18:42:11.189Z,22.04
2019-04-26T18:44:47.382Z,22.15
2019-04-26T18:47:20.585Z,22.07
2019-04-26T18:49:44.424Z,22.18
2019-04-26T18:52:13.577Z,22.11
2019-04-26T18:55:01.617Z,22.38
2019-04-26T18:57:29.684Z,22.35
2019-04-26T18:59:57.543Z,21.90
2019-04-26T19:02:25.896Z,22.14
2019-04-26T19:04:53.665Z,22.22
2019-04-26T19:07:31.319Z,22.19
2019-04-26T19:10:02.057Z,22.08
2019-04-26T19:12:23.355Z,22.03
2019-04-26T19:15:09.448Z,21.77
2019-04-26T19:18:00.195Z,22.09
2019-04-26T19:20:36.608Z,21.71
2019-04-26T19:23:06.940Z,21.32
2019-04-26T19:25:40.603Z,21.22
2019-04-26T19:28:08.169Z,21.54
2019-04-26T19:30:34.668Z,21.18
2019-04-26T19:33:03.344Z,21.22
2019-04-26T19:35:32.844Z,21.14
2019-04-26T19:38:00.774Z,21.14
2019-04-26T19:40:28.675Z,21.29
2019-04-26T19:42:57.528Z,21.22
2019-04-26T19:45:47.004Z,21.29
2019-04-26T19:48:20.696Z,21.15
2019-04-26T19:50:52.765Z,21.15
2019-04-26T19:53:51.688Z,21.43
2019-04-26T19:56:37.750Z,20.93
2019-04-26T19:59:05.508Z,21.72
2019-04-26T20:01:33.440Z,21.61
2019-04-26T20:04:02.466Z,21.74
2019-04-26T20:06:32.268Z,21.72
2019-04-26T20:09:01.936Z,21.57
2019-04-26T20:11:31.585Z,21.66
2019-04-26T20:14:01.440Z,21.14
2019-04-26T20:16:30.001Z,21.52
2019-04-26T20:18:57.881Z,21.74
2019-04-26T20:21:25.661Z,21.74
2019-04-26T20:23:54.598Z,21.49
2019-04-26T20:26:22.635Z,21.71
2019-04-26T20:28:51.408Z,21.15
2019-04-26T20:31:29.531Z,21.74
2019-04-26T20:33:57.580Z,21.55
2019-04-26T20:36:25.958Z,21.30
2019-04-26T20:38:58.439Z,21.45
2019-04-26T20:41:26.098Z,21.57
2019-04-26T20:47:03.441Z,19.88
2019-04-26T20:49:32.181Z,21.22
2019-04-26T20:52:01.894Z,21.43
2019-04-26T20:54:31.453Z,20.87
2019-04-26T20:57:02.860Z,21.33
2019-04-26T20:59:30.763Z,21.25
2019-04-26T21:02:06.343Z,21.00
2019-04-26T21:04:36.926Z,21.16
2019-04-26T21:06:58.125Z,21.24
2019-04-26T21:09:26.516Z,21.20
2019-04-26T21:11:57.108Z,21.31
2019-04-26T21:14:25.124Z,21.02
2019-04-26T21:16:52.931Z,21.22
2019-04-26T21:19:20.811Z,21.30
2019-04-26T21:21:49.986Z,21.21
2019-04-26T21:24:19.995Z,21.09
2019-04-26T21:27:10.170Z,21.39
2019-04-26T21:30:01.190Z,21.49
2019-04-26T21:32:44.661Z,21.59
2019-04-26T21:35:14.122Z,21.07
2019-04-26T21:38:10.240Z,21.24
2019-04-26T21:41:10.987Z,21.38
2019-04-26T21:43:34.712Z,21.33
2019-04-26T21:46:08.452Z,21.22
2019-04-26T21:48:32.842Z,21.25
2019-04-26T21:51:03.909Z,21.05
2019-04-26T21:53:32.718Z,21.09
2019-04-26T21:56:02.939Z,21.14
2019-04-26T21:58:30.869Z,20.78
2019-04-26T22:01:11.021Z,20.34
2019-04-26T22:03:40.151Z,20.92
2019-04-26T22:06:08.000Z,20.95
2019-04-26T22:08:38.823Z,20.15
2019-04-26T22:11:06.578Z,20.11
2019-04-26T22:13:56.089Z,19.72
2019-04-26T22:16:47.432Z,19.63
2019-04-26T22:19:23.863Z,19.29
2019-04-26T22:22:06.835Z,19.26
2019-04-26T22:24:35.765Z,19.06
2019-04-26T22:27:03.912Z,20.27
2019-04-26T22:29:33.300Z,20.83
2019-04-26T22:32:01.302Z,20.95
2019-04-26T22:34:29.135Z,21.01
2019-04-26T22:36:56.905Z,21.05
2019-04-26T22:39:24.852Z,21.05
2019-04-26T22:41:53.365Z,21.05
2019-04-26T22:44:31.373Z,21.08
2019-04-26T22:47:10.916Z,21.10
2019-04-26T22:49:41.899Z,21.11
2019-04-26T22:52:11.182Z,21.13
2019-04-26T22:54:42.870Z,20.88
2019-04-26T22:57:13.215Z,20.73
2019-04-26T22:59:42.119Z,20.69
2019-04-26T23:02:10.159Z,20.85
2019-04-26T23:04:38.134Z,20.70
2019-04-26T23:07:07.768Z,20.77
2019-04-26T23:09:35.548Z,20.83
2019-04-26T23:12:24.919Z,20.61
2019-04-26T23:15:14.156Z,20.77
2019-04-26T23:17:53.516Z,20.91
2019-04-26T23:20:37.851Z,21.01
2019-04-26T23:23:08.373Z,21.01
2019-04-26T23:25:34.665Z,20.98
2019-04-26T23:28:04.137Z,20.89
2019-04-26T23:30:33.574Z,20.81
2019-04-26T23:33:01.457Z,20.76
2019-04-26T23:35:29.309Z,20.77
2019-04-26T23:38:00.973Z,20.71
2019-04-26T23:40:28.934Z,20.72
2019-04-26T23:42:56.055Z,20.73
2019-04-26T23:45:23.826Z,20.74
2019-04-26T23:47:53.015Z,20.58
2019-04-26T23:50:21.215Z,20.67
2019-04-26T23:52:50.271Z,20.73
2019-04-26T23:55:18.313Z,20.70
2019-04-26T23:57:46.105Z,20.68
